Time;durP1;ratioP1;P1;durP2;ratioP2;P2;SDS_P1;SDS_P2;PMS_P1;PMS_P2;Temp;Humidity;BMP_temperature;BMP_pressure;BME280_temperature;BME280_humidity;BME280_pressure;Samples;Min_cycle;Max_cycle;Signal;HPM_P1;HPM_P2
2022/05/12 00:00:31;;;;;;;8.70;5.20;;;25.40;54.40;;;;;;220076;1270;22554;-44
2022/05/12 00:05:39;;;;;;;7.50;5.20;;;25.40;54.30;;;;;;220455;1270;24416;-42
2022/05/12 00:10:43;;;;;;;6.90;5.10;;;25.40;54.30;;;;;;220258;1270;24420;-43
2022/05/12 00:15:48;;;;;;;5.60;4.30;;;25.40;54.40;;;;;;220511;1268;22540;-42
2022/05/12 00:20:52;;;;;;;8.50;4.90;;;25.40;54.40;;;;;;220292;1268;25311;-43
2022/05/12 00:25:56;;;;;;;6.10;4.70;;;25.40;54.00;;;;;;220428;1268;22580;-43
2022/05/12 00:31:01;;;;;;;8.30;5.40;;;25.40;54.40;;;;;;220319;1268;23292;-43
2022/05/12 00:36:06;;;;;;;8.30;5.10;;;25.30;54.30;;;;;;220378;1269;22559;-43
2022/05/12 00:41:11;;;;;;;6.10;4.20;;;25.30;54.20;;;;;;220516;1270;25204;-44
2022/05/12 00:46:25;;;;;;;6.70;5.00;;;25.30;54.30;;;;;;220672;1270;22687;-43
2022/05/12 00:51:35;;;;;;;7.00;4.30;;;25.30;54.10;;;;;;220527;1270;25401;-44
2022/05/12 00:56:39;;;;;;;7.20;4.80;;;25.30;54.70;;;;;;220618;1270;22611;-43
2022/05/12 01:01:43;;;;;;;7.20;4.20;;;25.30;54.20;;;;;;220147;1270;22843;-42
2022/05/12 01:06:47;;;;;;;6.50;4.70;;;25.30;54.20;;;;;;220671;1268;25260;-41
2022/05/12 01:11:50;;;;;;;6.20;4.00;;;25.30;54.40;;;;;;220477;1268;23148;-42
2022/05/12 01:16:57;;;;;;;6.20;4.40;;;25.30;55.20;;;;;;220763;1268;25254;-45
2022/05/12 01:22:02;;;;;;;5.90;4.40;;;25.20;54.30;;;;;;220333;1268;23603;-44
2022/05/12 01:27:20;;;;;;;5.10;3.90;;;25.20;54.30;;;;;;220094;1268;25296;-43
2022/05/12 01:32:28;;;;;;;6.40;4.10;;;25.30;54.80;;;;;;220218;1268;24259;-43
2022/05/12 01:37:32;;;;;;;7.30;3.90;;;25.20;54.70;;;;;;220600;1268;22545;-43
2022/05/12 01:42:36;;;;;;;4.80;4.20;;;25.20;54.30;;;;;;220683;1268;24216;-44
2022/05/12 01:47:41;;;;;;;6.30;4.50;;;25.20;54.30;;;;;;220470;1270;24304;-44
2022/05/12 01:52:45;;;;;;;5.90;4.30;;;25.20;54.60;;;;;;220702;1268;22757;-43
2022/05/12 01:57:48;;;;;;;5.30;4.10;;;25.20;54.10;;;;;;220664;1268;26638;-43
2022/05/12 02:02:54;;;;;;;5.10;3.90;;;25.20;53.70;;;;;;220653;1268;24253;-43
2022/05/12 02:07:58;;;;;;;5.40;4.00;;;25.20;54.20;;;;;;220278;1270;22707;-42
2022/05/12 02:13:02;;;;;;;6.20;3.90;;;25.20;54.50;;;;;;220681;1270;22615;-42
2022/05/12 02:18:06;;;;;;;3.70;3.10;;;25.20;54.20;;;;;;220810;1270;25579;-46
2022/05/12 02:23:10;;;;;;;5.10;3.60;;;25.10;54.60;;;;;;220818;1268;22544;-42
2022/05/12 02:28:14;;;;;;;5.00;3.40;;;25.10;54.30;;;;;;220803;1268;22564;-44
2022/05/12 02:33:18;;;;;;;6.10;3.80;;;25.10;54.10;;;;;;220476;1270;22580;-42
2022/05/12 02:38:22;;;;;;;4.00;3.60;;;25.10;54.20;;;;;;220430;1270;22547;-43
2022/05/12 02:43:28;;;;;;;5.00;3.20;;;25.10;54.00;;;;;;220449;1268;25407;-42
2022/05/12 02:48:35;;;;;;;5.20;3.80;;;25.10;53.80;;;;;;220559;1268;24263;-42
2022/05/12 02:53:40;;;;;;;5.70;3.30;;;25.10;54.10;;;;;;220419;1268;25291;-44
2022/05/12 02:58:44;;;;;;;6.10;3.20;;;25.10;54.10;;;;;;220565;1268;22542;-46
2022/05/12 03:03:49;;;;;;;6.40;3.50;;;25.10;54.10;;;;;;220741;1268;22564;-46
2022/05/12 03:08:53;;;;;;;4.00;3.50;;;25.10;54.10;;;;;;220533;1270;23973;-44
2022/05/12 03:13:59;;;;;;;4.80;3.40;;;25.10;54.40;;;;;;220627;1268;22546;-42
2022/05/12 03:19:06;;;;;;;5.60;3.60;;;25.10;54.10;;;;;;220506;1268;22670;-45
2022/05/12 03:24:09;;;;;;;5.60;3.20;;;25.10;54.10;;;;;;220439;1268;24276;-43
2022/05/12 03:29:16;;;;;;;4.20;3.20;;;25.00;54.10;;;;;;220240;1270;22601;-44
2022/05/12 03:34:20;;;;;;;4.00;3.10;;;25.00;54.10;;;;;;220368;1268;24334;-44
2022/05/12 03:39:24;;;;;;;3.80;3.30;;;25.00;54.10;;;;;;220381;1268;22718;-42
2022/05/12 03:44:47;;;;;;;4.30;3.50;;;25.00;54.10;;;;;;220580;1268;22590;-43
2022/05/12 03:49:53;;;;;;;5.20;3.00;;;25.00;54.00;;;;;;220426;1268;24386;-43
2022/05/12 03:54:58;;;;;;;5.10;3.30;;;25.00;54.10;;;;;;220481;1270;23924;-41
2022/05/12 04:00:03;;;;;;;4.30;3.20;;;25.00;54.20;;;;;;220525;1268;22686;-43
2022/05/12 04:05:13;;;;;;;3.70;3.10;;;25.00;54.10;;;;;;220108;1270;25359;-44
2022/05/12 04:10:26;;;;;;;4.20;3.20;;;25.00;54.30;;;;;;220214;1270;22775;-43
2022/05/12 04:15:30;;;;;;;3.50;2.90;;;25.00;54.00;;;;;;220512;1270;25253;-44
2022/05/12 04:20:34;;;;;;;4.20;3.30;;;25.00;54.00;;;;;;220228;1270;22540;-44
2022/05/12 04:25:38;;;;;;;4.00;3.20;;;25.00;54.10;;;;;;220618;1268;22662;-44
2022/05/12 04:30:42;;;;;;;4.00;2.90;;;25.00;54.00;;;;;;220711;1268;22537;-44
2022/05/12 04:35:46;;;;;;;4.30;3.10;;;25.00;54.00;;;;;;220467;1268;25384;-43
2022/05/12 04:40:51;;;;;;;4.20;3.30;;;25.00;53.50;;;;;;220350;1268;25297;-42
2022/05/12 04:45:55;;;;;;;3.80;3.00;;;25.00;53.90;;;;;;220854;1268;22549;-43
2022/05/12 04:51:00;;;;;;;3.90;3.00;;;25.00;54.00;;;;;;220828;1270;22562;-43
2022/05/12 04:56:04;;;;;;;4.00;3.00;;;25.00;54.10;;;;;;220616;1268;22619;-43
2022/05/12 05:01:07;;;;;;;3.20;2.80;;;25.00;54.00;;;;;;220412;1270;24421;-42
2022/05/12 05:06:12;;;;;;;3.40;2.80;;;25.00;54.00;;;;;;220522;1270;25385;-45
2022/05/12 05:11:15;;;;;;;3.90;3.10;;;25.00;54.70;;;;;;220227;1270;25625;-46
2022/05/12 05:16:19;;;;;;;3.50;2.90;;;25.00;54.50;;;;;;220269;1268;22529;-43
2022/05/12 05:21:23;;;;;;;3.70;3.10;;;25.00;54.60;;;;;;220495;1268;22540;-42
2022/05/12 05:26:31;;;;;;;5.20;2.90;;;25.00;54.30;;;;;;220404;1268;25473;-44
2022/05/12 05:31:37;;;;;;;4.50;3.00;;;25.00;54.50;;;;;;220578;1267;22684;-45
2022/05/12 05:36:44;;;;;;;4.50;3.20;;;25.00;54.10;;;;;;220147;1270;22559;-44
2022/05/12 05:41:52;;;;;;;4.40;3.00;;;25.00;54.40;;;;;;220278;1268;23107;-47
2022/05/12 05:46:55;;;;;;;4.40;2.80;;;25.10;54.30;;;;;;220196;1270;24393;-43
2022/05/12 05:57:30;;;;;;;4.30;2.80;;;25.10;54.10;;;;;;220720;1267;22532;-44
2022/05/12 06:02:34;;;;;;;4.50;2.80;;;25.10;54.10;;;;;;220592;1267;24277;-44
2022/05/12 06:07:39;;;;;;;7.50;3.30;;;25.10;54.50;;;;;;220697;1267;22575;-43
2022/05/12 06:12:43;;;;;;;5.60;2.80;;;25.20;54.60;;;;;;220459;1267;22532;-47
2022/05/12 06:17:48;;;;;;;5.70;3.10;;;25.20;55.00;;;;;;220484;1268;22535;-45
2022/05/12 06:22:56;;;;;;;3.20;2.70;;;25.20;54.20;;;;;;220440;1270;25319;-43
2022/05/12 06:28:00;;;;;;;5.10;2.90;;;25.20;54.40;;;;;;220019;1270;26013;-44
2022/05/12 06:33:04;;;;;;;6.50;3.20;;;25.20;53.80;;;;;;220234;1267;25346;-44
2022/05/12 06:38:11;;;;;;;7.00;2.90;;;25.30;54.10;;;;;;220749;1267;22547;-46
2022/05/12 06:43:15;;;;;;;5.50;2.90;;;25.30;53.70;;;;;;220298;1267;22530;-47
2022/05/12 06:48:20;;;;;;;5.70;2.80;;;25.30;53.60;;;;;;220945;1267;23944;-43
2022/05/12 06:53:24;;;;;;;6.40;2.90;;;25.40;53.90;;;;;;220692;1267;22556;-46
2022/05/12 06:58:28;;;;;;;3.80;2.70;;;25.40;53.40;;;;;;220293;1270;22526;-44
2022/05/12 07:03:34;;;;;;;6.40;2.90;;;25.40;53.10;;;;;;220387;1267;22553;-44
2022/05/12 07:08:41;;;;;;;6.00;2.60;;;25.40;52.90;;;;;;220184;1267;22560;-46
2022/05/12 07:13:46;;;;;;;5.00;2.80;;;25.40;52.80;;;;;;220330;1268;25634;-43
2022/05/12 07:18:50;;;;;;;5.60;2.70;;;25.40;52.50;;;;;;220006;1267;290309;-44
2022/05/12 07:29:27;;;;;;;4.50;2.60;;;25.40;52.20;;;;;;220479;1267;24368;-42
2022/05/12 07:34:32;;;;;;;4.30;3.00;;;25.50;52.00;;;;;;220046;1267;24192;-43
2022/05/12 07:39:36;;;;;;;5.50;2.90;;;25.50;52.00;;;;;;220059;1267;22546;-44
2022/05/12 07:44:40;;;;;;;6.70;2.80;;;25.50;52.00;;;;;;219905;1268;22548;-43
2022/05/12 07:49:44;;;;;;;3.80;2.60;;;25.60;51.90;;;;;;219401;1267;22518;-44
2022/05/12 07:54:48;;;;;;;5.60;2.60;;;25.60;51.90;;;;;;227663;1269;22313;-43
2022/05/12 07:59:52;;;;;;;5.80;2.80;;;25.60;51.90;;;;;;227933;1270;22376;-45
2022/05/12 08:04:56;;;;;;;5.00;2.90;;;25.60;52.00;;;;;;227770;1269;22512;-46
2022/05/12 08:10:01;;;;;;;5.50;2.60;;;25.60;52.00;;;;;;227770;1267;22367;-46
2022/05/12 08:15:05;;;;;;;12.90;2.90;;;25.60;52.10;;;;;;227746;1270;22444;-45
2022/05/12 08:20:11;;;;;;;5.80;2.80;;;25.70;52.50;;;;;;227744;1270;22366;-44
2022/05/12 08:25:16;;;;;;;6.30;3.10;;;25.80;52.60;;;;;;227721;1267;22517;-44
2022/05/12 08:30:19;;;;;;;7.30;3.10;;;25.80;53.20;;;;;;227749;1270;22176;-42
2022/05/12 08:35:25;;;;;;;12.70;2.90;;;25.80;52.60;;;;;;223464;1268;24088;-48
2022/05/12 08:40:58;;;;;;;8.60;3.20;;;25.90;53.20;;;;;;220888;1268;23896;-48
2022/05/12 08:46:08;;;;;;;11.30;3.10;;;26.00;52.40;;;;;;220220;1269;22538;-42
2022/05/12 08:51:17;;;;;;;10.70;3.10;;;26.00;52.30;;;;;;220021;1268;24256;-45
2022/05/12 08:56:25;;;;;;;6.90;2.90;;;26.00;51.90;;;;;;220167;1270;25352;-44
2022/05/12 09:01:53;;;;;;;8.40;2.90;;;26.00;51.80;;;;;;220078;1270;22696;-42
2022/05/12 09:07:05;;;;;;;6.80;3.10;;;25.90;52.40;;;;;;220129;1269;24284;-45
2022/05/12 09:12:45;;;;;;;7.60;3.10;;;25.80;52.70;;;;;;220089;1270;25324;-44
2022/05/12 09:18:04;;;;;;;11.10;3.20;;;25.70;52.70;;;;;;220106;1271;22849;-44
2022/05/12 09:23:08;;;;;;;14.00;3.10;;;25.80;52.20;;;;;;220257;1270;22550;-45
2022/05/12 09:28:39;;;;;;;11.30;2.80;;;25.70;50.10;;;;;;220070;1267;22614;-43
2022/05/12 09:33:47;;;;;;;6.70;2.90;;;25.70;49.80;;;;;;220220;1268;24272;-51
2022/05/12 09:38:54;;;;;;;7.50;2.90;;;25.70;50.40;;;;;;220512;1267;22561;-42
2022/05/12 09:44:15;;;;;;;9.20;3.40;;;25.70;50.40;;;;;;220518;1269;24368;-44
2022/05/12 09:49:20;;;;;;;;;;;25.70;50.30;;;;;;220560;1270;24270;-45
2022/05/12 09:54:28;;;;;;;11.30;2.70;;;25.70;49.10;;;;;;220175;1268;25446;-42
2022/05/12 09:59:32;;;;;;;14.50;2.30;;;25.80;49.60;;;;;;220231;1270;24246;-44
2022/05/12 10:10:08;;;;;;;5.20;2.00;;;25.80;48.30;;;;;;220569;1271;24207;-44
2022/05/12 10:15:35;;;;;;;8.00;2.30;;;25.80;49.00;;;;;;220319;1269;22641;-49
2022/05/12 10:20:50;;;;;;;8.00;2.30;;;25.90;49.30;;;;;;220315;1267;26780;-42
2022/05/12 10:25:59;;;;;;;;;;;25.90;48.30;;;;;;220140;1270;22551;-44
2022/05/12 10:31:16;;;;;;;7.10;2.10;;;25.90;48.80;;;;;;220286;1267;22558;-42
2022/05/12 10:36:34;;;;;;;8.80;2.30;;;26.00;49.10;;;;;;220157;1271;22568;-44
2022/05/12 10:42:00;;;;;;;7.20;2.00;;;26.10;49.10;;;;;;220088;1268;22562;-46
2022/05/12 10:47:19;;;;;;;7.10;2.30;;;26.10;49.40;;;;;;220473;1268;24269;-43
2022/05/12 10:52:46;;;;;;;4.50;2.10;;;26.10;49.70;;;;;;220649;1268;22570;-43
2022/05/12 10:57:49;;;;;;;5.50;2.20;;;26.10;48.50;;;;;;220496;1268;22618;-47
2022/05/12 11:02:59;;;;;;;4.00;2.10;;;26.10;48.90;;;;;;220439;1268;27224;-43
2022/05/12 11:08:41;;;;;;;;;;;26.10;48.70;;;;;;220284;1268;25210;-45
2022/05/12 11:13:48;;;;;;;13.80;2.40;;;26.20;48.80;;;;;;219171;1275;22937;-46
2022/05/12 11:19:16;;;;;;;10.80;1.90;;;26.20;49.10;;;;;;219807;1271;22586;-45
2022/05/12 11:24:49;;;;;;;5.50;2.10;;;26.20;48.10;;;;;;220492;1271;24373;-43
2022/05/12 11:30:21;;;;;;;7.30;2.70;;;26.20;48.70;;;;;;220614;1269;24954;-43
2022/05/12 11:35:45;;;;;;;7.30;2.80;;;26.30;49.40;;;;;;220156;1270;22572;-45
2022/05/12 11:40:51;;;;;;;10.10;2.20;;;26.40;49.80;;;;;;220229;1268;22571;-44
2022/05/12 11:46:52;;;;;;;5.10;1.80;;;26.40;50.60;;;;;;220399;1271;26665;-44
2022/05/12 11:52:03;;;;;;;11.20;2.20;;;26.40;49.60;;;;;;220012;1270;24315;-44
2022/05/12 11:57:29;;;;;;;6.30;2.20;;;26.40;52.20;;;;;;220393;1268;22654;-47
2022/05/12 12:02:33;;;;;;;4.60;2.00;;;26.50;53.10;;;;;;220228;1268;25239;-44
2022/05/12 12:07:37;;;;;;;10.40;2.10;;;26.50;55.90;;;;;;220599;1268;22529;-44
2022/05/12 12:12:40;;;;;;;5.40;1.90;;;26.60;54.80;;;;;;220820;1269;22561;-43
2022/05/12 12:17:44;;;;;;;9.30;2.10;;;26.60;51.70;;;;;;219719;1271;25192;-45
2022/05/12 12:22:52;;;;;;;6.00;1.80;;;26.40;48.00;;;;;;220035;1268;24344;-43
2022/05/12 12:28:34;;;;;;;7.80;1.60;;;26.30;44.30;;;;;;220054;1269;22554;-46
2022/05/12 12:33:52;;;;;;;10.90;1.80;;;26.10;41.40;;;;;;219996;1268;25251;-45
2022/05/12 12:38:55;;;;;;;8.10;1.90;;;25.90;39.10;;;;;;220079;1270;22729;-43
2022/05/12 12:44:04;;;;;;;6.90;1.70;;;25.90;39.10;;;;;;219976;1272;23033;-47
2022/05/12 12:49:24;;;;;;;11.30;1.80;;;25.80;37.50;;;;;;220028;1271;22552;-47
2022/05/12 13:00:15;;;;;;;5.70;1.60;;;25.70;36.90;;;;;;219892;1271;22685;-46
2022/05/12 13:05:21;;;;;;;7.90;1.50;;;25.70;35.90;;;;;;219951;1268;24244;-47
2022/05/12 13:10:26;;;;;;;10.30;1.70;;;25.70;34.40;;;;;;220145;1268;25351;-42
2022/05/12 13:15:33;;;;;;;11.20;1.30;;;25.70;34.30;;;;;;220291;1268;24297;-45
2022/05/12 13:20:43;;;;;;;7.00;1.80;;;25.80;33.90;;;;;;220240;1267;22577;-46
2022/05/12 13:25:47;;;;;;;8.30;1.80;;;25.90;35.30;;;;;;219910;1268;22718;-46
2022/05/12 13:31:14;;;;;;;9.50;2.10;;;26.00;37.40;;;;;;219852;1268;24475;-45
2022/05/12 13:36:23;;;;;;;9.70;1.40;;;26.00;39.40;;;;;;220617;1268;25239;-45
2022/05/12 13:41:35;;;;;;;6.90;1.80;;;26.20;45.20;;;;;;219924;1273;22537;-46
2022/05/12 13:46:39;;;;;;;12.60;1.60;;;26.30;44.30;;;;;;220371;1268;24275;-44
2022/05/12 13:51:50;;;;;;;10.00;2.70;;;26.30;44.40;;;;;;220413;1268;22561;-46
2022/05/12 13:57:28;;;;;;;14.20;2.10;;;26.40;44.40;;;;;;220284;1267;24320;-43
2022/05/12 14:02:35;;;;;;;15.40;2.10;;;26.40;45.20;;;;;;220085;1267;22609;-45
2022/05/12 14:07:40;;;;;;;10.80;1.80;;;26.50;45.40;;;;;;219939;1267;22555;-45
2022/05/12 14:23:32;;;;;;;11.10;2.00;;;26.50;44.60;;;;;;220107;1267;24258;-44
2022/05/12 14:28:37;;;;;;;9.30;2.00;;;26.50;44.60;;;;;;220328;1268;23946;-44
2022/05/12 14:33:40;;;;;;;10.10;2.00;;;26.50;45.00;;;;;;220271;1267;24339;-44
2022/05/12 14:38:48;;;;;;;6.10;1.70;;;26.40;44.40;;;;;;220557;1270;24204;-44
2022/05/12 14:43:57;;;;;;;6.00;1.90;;;26.40;44.60;;;;;;220235;1268;22557;-44
2022/05/12 14:49:02;;;;;;;5.80;1.40;;;26.30;44.70;;;;;;220288;1268;24309;-48
2022/05/12 14:54:06;;;;;;;9.00;1.80;;;26.30;45.10;;;;;;220111;1267;25403;-47
2022/05/12 14:59:11;;;;;;;9.10;1.50;;;26.30;45.40;;;;;;220581;1268;23038;-44
2022/05/12 15:04:15;;;;;;;8.10;1.90;;;26.20;44.90;;;;;;220662;1268;22550;-47
2022/05/12 15:09:19;;;;;;;5.70;1.40;;;26.20;44.90;;;;;;220278;1270;22567;-46
2022/05/12 15:14:26;;;;;;;4.30;1.60;;;26.20;45.20;;;;;;220243;1268;24393;-44
2022/05/12 15:19:33;;;;;;;4.50;1.40;;;26.20;45.40;;;;;;220326;1268;22856;-46
2022/05/12 15:24:44;;;;;;;3.60;1.40;;;26.20;45.30;;;;;;220285;1268;22532;-45
2022/05/12 15:29:52;;;;;;;5.80;1.60;;;26.10;44.50;;;;;;220223;1267;22551;-45
2022/05/12 15:34:56;;;;;;;2.70;1.50;;;26.10;44.70;;;;;;220509;1268;22894;-43
2022/05/12 15:40:00;;;;;;;5.90;1.60;;;26.10;44.40;;;;;;220313;1270;24359;-45
2022/05/12 15:45:06;;;;;;;12.60;2.30;;;26.00;44.10;;;;;;220273;1270;24995;-45
2022/05/12 15:50:24;;;;;;;3.40;1.40;;;26.00;43.80;;;;;;220557;1267;22563;-61
2022/05/12 15:55:33;;;;;;;3.60;1.40;;;26.00;44.20;;;;;;220443;1268;26044;-63
2022/05/12 16:00:42;;;;;;;4.90;1.60;;;26.10;44.60;;;;;;220264;1268;24297;-55
2022/05/12 16:05:48;;;;;;;20.90;2.20;;;26.10;45.20;;;;;;220312;1267;22557;-53
2022/05/12 16:10:58;;;;;;;20.50;2.50;;;26.20;45.50;;;;;;220410;1267;22560;-54
2022/05/12 16:16:02;;;;;;;8.90;1.90;;;26.20;48.20;;;;;;219955;1267;23473;-53
2022/05/12 16:21:09;;;;;;;9.20;2.20;;;26.20;46.70;;;;;;220157;1267;22522;-56
2022/05/12 16:26:15;;;;;;;15.00;2.10;;;26.20;46.70;;;;;;219993;1267;22532;-53
2022/05/12 16:31:27;;;;;;;17.50;3.20;;;26.20;46.00;;;;;;220466;1267;22561;-56
2022/05/12 16:36:34;;;;;;;9.60;2.30;;;26.20;49.40;;;;;;219836;1268;22534;-59
2022/05/12 16:41:39;;;;;;;12.00;2.70;;;26.30;49.00;;;;;;222238;1268;22542;-56
2022/05/12 16:46:43;;;;;;;8.50;2.10;;;26.30;48.60;;;;;;219898;1268;22556;-57
2022/05/12 16:51:48;;;;;;;9.30;2.20;;;26.20;46.60;;;;;;220784;1268;24423;-57
2022/05/12 16:57:01;;;;;;;9.40;2.40;;;26.10;46.80;;;;;;220106;1267;24260;-58
2022/05/12 17:02:07;;;;;;;6.60;1.60;;;26.10;47.70;;;;;;220256;1268;26025;-57
2022/05/12 17:07:12;;;;;;;6.20;1.40;;;25.90;46.10;;;;;;220192;1270;24502;-58
2022/05/12 17:12:18;;;;;;;3.20;1.40;;;25.80;41.80;;;;;;220197;1268;25432;-62
2022/05/12 17:17:22;;;;;;;5.30;1.20;;;25.60;39.70;;;;;;220289;1267;25349;-60
2022/05/12 17:22:27;;;;;;;6.40;1.10;;;25.60;39.60;;;;;;220196;1267;22770;-61
2022/05/12 17:27:31;;;;;;;3.70;1.00;;;25.40;39.00;;;;;;220325;1267;24211;-63
2022/05/12 17:32:36;;;;;;;5.90;1.60;;;25.40;38.50;;;;;;220304;1268;23362;-56
2022/05/12 17:37:41;;;;;;;7.70;1.40;;;25.30;38.50;;;;;;220100;1267;22531;-61
2022/05/12 17:43:07;;;;;;;5.80;1.20;;;25.30;38.20;;;;;;220114;1270;22537;-60
2022/05/12 17:48:19;;;;;;;3.10;1.10;;;25.30;38.00;;;;;;220437;1267;22534;-61
2022/05/12 17:53:27;;;;;;;3.70;1.20;;;25.30;38.30;;;;;;220319;1268;22697;-62
2022/05/12 17:58:31;;;;;;;6.00;1.10;;;25.30;38.50;;;;;;220257;1268;23495;-64
2022/05/12 18:03:35;;;;;;;8.30;1.60;;;25.30;38.60;;;;;;219736;1270;24204;-63
2022/05/12 18:08:39;;;;;;;12.10;1.50;;;25.20;38.70;;;;;;220353;1268;23948;-66
2022/05/12 18:13:43;;;;;;;6.40;1.30;;;25.10;39.10;;;;;;220255;1267;23087;-67
2022/05/12 18:18:47;;;;;;;5.10;1.40;;;25.10;38.60;;;;;;220316;1267;25833;-57
2022/05/12 18:24:00;;;;;;;11.50;1.30;;;25.20;38.80;;;;;;220068;1267;22702;-60
2022/05/12 18:29:04;;;;;;;7.50;1.60;;;25.20;39.00;;;;;;220147;1270;24504;-56
2022/05/12 18:34:09;;;;;;;8.10;1.80;;;25.30;38.80;;;;;;220100;1268;23242;-62
2022/05/12 18:39:18;;;;;;;3.80;1.00;;;25.20;39.40;;;;;;220348;1267;24076;-63
2022/05/12 18:44:27;;;;;;;6.30;1.20;;;25.30;39.70;;;;;;220000;1268;25419;-62
2022/05/12 18:49:32;;;;;;;5.20;1.10;;;25.30;39.90;;;;;;220333;1267;22556;-57
2022/05/12 18:54:41;;;;;;;10.00;1.60;;;25.20;39.30;;;;;;219661;1266;24400;-52
2022/05/12 18:59:48;;;;;;;14.90;1.90;;;25.00;39.00;;;;;;220439;1267;25236;-59
2022/05/12 19:04:54;;;;;;;11.50;1.60;;;24.80;38.80;;;;;;220740;1267;24316;-60
2022/05/12 19:09:59;;;;;;;7.90;1.50;;;24.70;39.40;;;;;;220660;1267;26654;-60
2022/05/12 19:15:09;;;;;;;8.30;1.50;;;24.80;40.10;;;;;;220772;1267;22645;-59
2022/05/12 19:20:15;;;;;;;18.20;2.10;;;24.80;40.20;;;;;;220118;1267;235181;-59
2022/05/12 19:25:22;;;;;;;8.60;1.70;;;24.90;40.90;;;;;;220572;1267;25303;-60
2022/05/12 19:30:38;;;;;;;12.10;1.70;;;24.70;39.90;;;;;;220397;1267;22564;-61
2022/05/12 19:35:42;;;;;;;10.50;1.20;;;24.50;39.40;;;;;;220169;1267;22979;-59
2022/05/12 19:40:49;;;;;;;13.50;1.90;;;24.40;40.10;;;;;;220151;1267;22987;-59
2022/05/12 19:45:53;;;;;;;7.70;1.40;;;24.10;40.80;;;;;;220308;1267;24295;-61
2022/05/12 19:50:59;;;;;;;14.60;2.10;;;23.80;41.40;;;;;;220510;1267;22678;-58
2022/05/12 19:56:06;;;;;;;15.50;4.10;;;23.60;42.30;;;;;;220151;1267;22557;-58
2022/05/12 20:01:10;;;;;;;14.20;4.20;;;23.70;41.80;;;;;;219997;1270;24426;-57
2022/05/12 20:06:14;;;;;;;11.50;3.50;;;24.00;41.60;;;;;;220283;1267;23483;-60
2022/05/12 20:11:19;;;;;;;12.10;4.00;;;24.30;41.40;;;;;;220349;1267;22553;-63
2022/05/12 20:16:31;;;;;;;15.90;3.50;;;24.40;41.40;;;;;;220256;1267;22629;-60
2022/05/12 20:21:38;;;;;;;6.90;3.20;;;24.50;41.30;;;;;;220104;1267;24213;-58
2022/05/12 20:26:50;;;;;;;7.80;3.40;;;24.50;41.20;;;;;;220186;1267;22551;-60
2022/05/12 20:31:58;;;;;;;8.20;4.00;;;24.50;41.50;;;;;;220261;1268;25360;-60
2022/05/12 20:37:17;;;;;;;12.10;3.80;;;24.50;41.70;;;;;;220379;1267;22528;-59
2022/05/12 20:42:44;;;;;;;8.60;3.70;;;24.50;41.90;;;;;;220102;1268;22644;-59
2022/05/12 20:47:55;;;;;;;7.50;3.60;;;24.50;41.90;;;;;;220267;1267;22573;-59
2022/05/12 20:53:08;;;;;;;7.30;3.80;;;24.50;41.70;;;;;;219896;1267;24289;-56
2022/05/12 20:58:40;;;;;;;8.30;3.70;;;24.50;41.30;;;;;;220266;1268;22763;-58
2022/05/12 21:04:47;;;;;;;10.80;3.70;;;24.40;41.40;;;;;;220354;1268;24243;-60
2022/05/12 21:10:26;;;;;;;10.70;3.80;;;24.40;41.30;;;;;;219931;1267;22564;-58
2022/05/12 21:15:34;;;;;;;11.90;3.70;;;24.50;43.60;;;;;;220089;1268;22550;-60
2022/05/12 21:20:50;;;;;;;7.30;3.50;;;24.60;43.80;;;;;;219829;1268;24397;-59
2022/05/12 21:25:54;;;;;;;8.80;3.40;;;24.70;43.80;;;;;;219843;1268;25634;-58
2022/05/12 21:30:59;;;;;;;12.00;3.00;;;24.70;44.20;;;;;;220018;1268;24342;-59
2022/05/12 21:36:03;;;;;;;8.90;3.20;;;24.70;43.90;;;;;;220289;1268;22605;-59
2022/05/12 21:41:10;;;;;;;6.40;2.80;;;24.70;43.70;;;;;;220088;1268;23858;-60
2022/05/12 21:46:16;;;;;;;5.50;3.10;;;24.70;43.30;;;;;;220349;1268;23197;-61
2022/05/12 21:51:22;;;;;;;5.90;3.00;;;24.70;43.80;;;;;;220085;1267;22550;-61
2022/05/12 21:56:33;;;;;;;8.00;2.80;;;24.70;43.40;;;;;;220045;1268;22621;-60
2022/05/12 22:01:42;;;;;;;5.00;2.20;;;24.70;43.40;;;;;;220033;1268;23144;-60
2022/05/12 22:07:00;;;;;;;6.50;2.80;;;24.70;43.60;;;;;;220045;1270;26296;-60
2022/05/12 22:12:17;;;;;;;4.60;2.30;;;24.70;43.60;;;;;;219880;1270;25386;-60
2022/05/12 22:17:34;;;;;;;4.70;2.00;;;24.60;42.10;;;;;;220051;1268;22572;-61
2022/05/12 22:22:48;;;;;;;6.60;2.20;;;24.50;42.60;;;;;;219908;1269;22535;-59
2022/05/12 22:27:57;;;;;;;6.00;2.20;;;24.50;42.80;;;;;;220170;1268;22783;-58
2022/05/12 22:33:06;;;;;;;4.60;2.00;;;24.50;44.00;;;;;;220257;1268;22741;-60
2022/05/12 22:38:12;;;;;;;9.70;2.20;;;24.60;43.80;;;;;;220248;1268;22575;-60
2022/05/12 22:43:22;;;;;;;4.80;2.20;;;24.60;43.70;;;;;;219925;1268;22811;-60
2022/05/12 22:48:29;;;;;;;6.80;2.40;;;24.50;43.50;;;;;;219960;1268;22565;-60
2022/05/12 22:53:36;;;;;;;3.00;2.00;;;24.60;44.30;;;;;;220086;1267;25233;-60
2022/05/12 22:58:43;;;;;;;4.80;2.30;;;24.60;44.20;;;;;;220084;1267;22535;-58
2022/05/12 23:03:49;;;;;;;4.80;2.00;;;24.70;44.20;;;;;;219989;1268;24212;-62
2022/05/12 23:08:53;;;;;;;7.90;2.20;;;24.60;44.40;;;;;;220660;1268;24601;-59
2022/05/12 23:13:58;;;;;;;6.30;2.50;;;24.60;44.70;;;;;;220038;1268;22551;-61
2022/05/12 23:24:28;;;;;;;5.20;2.40;;;24.70;44.70;;;;;;220479;1268;25405;-61
2022/05/12 23:29:32;;;;;;;3.60;2.00;;;24.70;45.30;;;;;;220200;1270;24505;-60
2022/05/12 23:34:36;;;;;;;7.70;2.30;;;24.70;45.20;;;;;;220146;1268;25461;-59
2022/05/12 23:39:39;;;;;;;4.40;2.00;;;24.70;45.40;;;;;;220109;1268;24046;-60
2022/05/12 23:44:43;;;;;;;4.40;2.10;;;24.70;45.60;;;;;;220373;1268;22762;-59
2022/05/12 23:49:47;;;;;;;4.10;2.10;;;24.70;45.70;;;;;;220167;1268;22779;-60
2022/05/12 23:54:51;;;;;;;4.70;2.10;;;24.70;46.10;;;;;;220641;1267;22550;-60
2022/05/12 23:59:55;;;;;;;4.60;1.90;;;24.70;46.00;;;;;;220265;1267;24258;-60
